Time;durP1;ratioP1;P1;durP2;ratioP2;P2;SDS_P1;SDS_P2;PMS_P1;PMS_P2;Temp;Humidity;BMP_temperature;BMP_pressure;BME280_temperature;BME280_humidity;BME280_pressure;Samples;Min_cycle;Max_cycle;Signal;HPM_P1;HPM_P2
2021/12/13 00:02:56;;;;;;;4.70;4.40;;;8.20;99.90;;;;;;10468109;28;20537;-84
2021/12/13 00:08:01;;;;;;;6.67;5.40;;;8.20;99.90;;;;;;10466120;28;20341;-84
2021/12/13 00:13:16;;;;;;;6.20;5.50;;;8.30;99.90;;;;;;10485523;28;20299;-83
2021/12/13 00:18:25;;;;;;;7.93;5.83;;;8.30;99.90;;;;;;10466760;28;20223;-85
2021/12/13 00:23:34;;;;;;;7.60;6.60;;;8.30;99.90;;;;;;10466484;28;20197;-84
2021/12/13 00:28:43;;;;;;;6.87;6.03;;;8.20;99.90;;;;;;10482284;28;20212;-84
2021/12/13 00:34:09;;;;;;;6.00;5.40;;;8.20;99.90;;;;;;10484128;28;20209;-84
2021/12/13 00:39:22;;;;;;;6.70;6.00;;;8.30;99.90;;;;;;10482885;28;20303;-84
2021/12/13 00:44:28;;;;;;;5.80;5.20;;;8.30;99.90;;;;;;10479912;28;20199;-84
2021/12/13 00:49:36;;;;;;;7.70;5.90;;;8.20;99.90;;;;;;10464707;28;20330;-84
2021/12/13 00:54:40;;;;;;;8.10;6.90;;;8.30;99.90;;;;;;10463088;28;20216;-84
2021/12/13 00:59:45;;;;;;;6.70;6.10;;;8.30;99.90;;;;;;10464494;28;20213;-84
2021/12/13 01:04:57;;;;;;;5.97;5.47;;;8.30;99.90;;;;;;10479940;28;20193;-84
2021/12/13 01:10:48;;;;;;;6.40;5.80;;;8.40;99.90;;;;;;10461172;28;20267;-85
2021/12/13 01:15:56;;;;;;;7.47;6.40;;;8.40;99.90;;;;;;10479766;28;20223;-84
2021/12/13 01:21:13;;;;;;;7.33;5.60;;;8.30;99.90;;;;;;10463401;28;20243;-85
2021/12/13 01:26:36;;;;;;;7.03;6.43;;;8.30;99.90;;;;;;10476027;28;20196;-85
2021/12/13 01:31:42;;;;;;;9.53;5.73;;;8.20;99.90;;;;;;10467660;28;20276;-85
2021/12/13 01:36:57;;;;;;;7.40;6.10;;;8.20;99.90;;;;;;10465845;28;20200;-85
2021/12/13 01:42:02;;;;;;;6.93;6.23;;;8.20;99.90;;;;;;10438086;28;20197;-85
2021/12/13 01:47:10;;;;;;;11.60;6.20;;;8.20;99.90;;;;;;10421306;28;20213;-85
2021/12/13 01:52:20;;;;;;;8.00;7.13;;;8.20;99.90;;;;;;10437737;28;20686;-84
2021/12/13 01:57:37;;;;;;;8.47;6.80;;;8.20;99.90;;;;;;10437290;28;20571;-85
2021/12/13 02:02:42;;;;;;;7.23;6.53;;;8.20;99.90;;;;;;10415656;28;20196;-84
2021/12/13 02:07:50;;;;;;;7.87;6.10;;;8.20;99.90;;;;;;10461014;28;20224;-85
2021/12/13 02:13:00;;;;;;;6.57;6.07;;;8.20;99.90;;;;;;10477780;28;20200;-84
2021/12/13 02:18:02;;;;;;;7.17;6.47;;;8.10;99.90;;;;;;10461253;28;20757;-84
2021/12/13 02:23:07;;;;;;;7.93;7.23;;;8.20;99.90;;;;;;10477766;28;20192;-84
2021/12/13 02:28:12;;;;;;;8.23;7.40;;;8.20;99.90;;;;;;10477529;28;20216;-85
2021/12/13 02:33:18;;;;;;;10.70;7.67;;;8.20;99.90;;;;;;10457071;28;20224;-86
2021/12/13 02:38:25;;;;;;;9.50;7.60;;;8.20;99.90;;;;;;10453826;28;20228;-85
2021/12/13 02:43:32;;;;;;;7.40;6.70;;;8.20;99.90;;;;;;10438018;28;20189;-85
2021/12/13 02:48:37;;;;;;;9.23;7.30;;;8.20;99.90;;;;;;10436159;28;20258;-85
2021/12/13 02:53:46;;;;;;;8.87;8.00;;;8.20;99.90;;;;;;10419418;28;20217;-84
2021/12/13 02:58:50;;;;;;;8.10;7.30;;;8.20;99.90;;;;;;10418672;28;20217;-85
2021/12/13 03:03:55;;;;;;;9.63;7.13;;;8.20;99.90;;;;;;10419182;28;20192;-85
2021/12/13 03:09:05;;;;;;;9.27;7.70;;;8.20;99.90;;;;;;10418950;28;20308;-84
2021/12/13 03:14:11;;;;;;;8.57;7.87;;;8.20;99.90;;;;;;10462900;28;20844;-85
2021/12/13 03:19:30;;;;;;;8.90;8.10;;;8.30;99.90;;;;;;10435613;28;20221;-85
2021/12/13 03:24:51;;;;;;;9.43;8.60;;;8.20;99.90;;;;;;10437113;28;20299;-85
2021/12/13 03:30:01;;;;;;;8.20;7.50;;;8.30;99.90;;;;;;10454154;28;20216;-85
2021/12/13 03:35:12;;;;;;;9.90;9.07;;;8.30;99.90;;;;;;10479459;28;20296;-85
2021/12/13 03:40:19;;;;;;;9.40;8.53;;;8.30;99.90;;;;;;10467209;28;20212;-85
2021/12/13 03:45:26;;;;;;;9.47;8.27;;;8.30;99.90;;;;;;10466835;28;20279;-85
2021/12/13 03:50:32;;;;;;;8.40;7.70;;;8.40;99.90;;;;;;10467310;28;20228;-85
2021/12/13 03:55:38;;;;;;;12.43;8.00;;;8.40;99.90;;;;;;10484029;28;20209;-85
2021/12/13 04:00:45;;;;;;;9.00;8.20;;;8.40;99.90;;;;;;10466126;28;20216;-85
2021/12/13 04:05:49;;;;;;;9.10;8.30;;;8.40;99.90;;;;;;10442050;28;20208;-85
2021/12/13 04:10:55;;;;;;;8.63;7.83;;;8.30;99.90;;;;;;10442032;28;20315;-85
2021/12/13 04:16:08;;;;;;;9.57;8.77;;;8.40;99.90;;;;;;10440933;28;20221;-85
2021/12/13 04:21:11;;;;;;;8.87;8.07;;;8.40;99.90;;;;;;10441230;28;20225;-85
2021/12/13 04:26:15;;;;;;;8.33;7.73;;;8.30;99.90;;;;;;10440958;28;20512;-86
2021/12/13 04:31:20;;;;;;;8.73;8.03;;;8.30;99.90;;;;;;10423851;28;20224;-86
2021/12/13 04:36:29;;;;;;;8.70;8.00;;;8.30;99.90;;;;;;10470255;28;20209;-85
2021/12/13 04:41:36;;;;;;;9.40;8.60;;;8.30;99.90;;;;;;10483330;28;20601;-84
2021/12/13 04:46:41;;;;;;;9.33;8.30;;;8.30;99.90;;;;;;10465518;28;20181;-85
2021/12/13 04:51:45;;;;;;;10.83;8.80;;;8.30;99.90;;;;;;10466059;28;20972;-85
2021/12/13 04:56:50;;;;;;;10.30;9.20;;;8.30;99.90;;;;;;10474328;28;20232;-85
2021/12/13 05:01:58;;;;;;;8.57;7.67;;;8.30;99.90;;;;;;10478858;28;20216;-85
2021/12/13 05:07:03;;;;;;;9.60;8.70;;;8.30;99.90;;;;;;10431090;28;20224;-85
2021/12/13 05:12:13;;;;;;;9.50;8.60;;;8.40;99.90;;;;;;10457026;28;20280;-85
2021/12/13 05:17:20;;;;;;;9.17;8.40;;;8.30;99.90;;;;;;10423842;28;20598;-85
2021/12/13 05:22:23;;;;;;;8.57;7.67;;;8.30;99.90;;;;;;10439237;28;20213;-84
2021/12/13 05:27:30;;;;;;;8.07;7.37;;;8.40;99.90;;;;;;10423527;28;20213;-84
2021/12/13 05:32:37;;;;;;;9.70;8.70;;;8.40;99.90;;;;;;10434360;28;20227;-85
2021/12/13 05:37:40;;;;;;;9.47;8.60;;;8.40;99.90;;;;;;10438443;28;20286;-84
2021/12/13 05:42:46;;;;;;;9.17;8.30;;;8.40;99.90;;;;;;10438605;28;20189;-84
2021/12/13 05:47:59;;;;;;;8.97;8.27;;;8.40;99.90;;;;;;10455232;28;20672;-86
2021/12/13 05:53:07;;;;;;;9.80;8.90;;;8.40;99.90;;;;;;10443873;28;20288;-85
2021/12/13 05:58:10;;;;;;;10.00;9.00;;;8.40;99.90;;;;;;10459737;28;20208;-84
2021/12/13 06:03:17;;;;;;;9.30;8.40;;;8.50;99.90;;;;;;10444159;28;20205;-83
2021/12/13 06:08:22;;;;;;;9.13;8.33;;;8.50;99.90;;;;;;10429022;28;20251;-83
2021/12/13 06:13:53;;;;;;;7.87;7.07;;;8.50;99.90;;;;;;10443178;28;20280;-83
2021/12/13 06:19:05;;;;;;;9.00;8.03;;;8.50;99.90;;;;;;10442672;28;20221;-86
2021/12/13 06:24:08;;;;;;;8.40;7.57;;;8.50;99.90;;;;;;10444952;28;20372;-83
2021/12/13 06:29:11;;;;;;;8.17;7.37;;;8.40;99.90;;;;;;10459235;28;20213;-85
2021/12/13 06:34:16;;;;;;;9.57;8.77;;;8.50;99.90;;;;;;10467464;28;20229;-85
2021/12/13 06:39:25;;;;;;;8.40;7.60;;;8.40;99.90;;;;;;10477637;28;20224;-85
2021/12/13 06:44:31;;;;;;;9.73;8.77;;;8.40;99.90;;;;;;10481601;28;20188;-84
2021/12/13 06:49:36;;;;;;;9.50;8.60;;;8.50;99.90;;;;;;10480806;28;20246;-85
2021/12/13 06:54:40;;;;;;;8.60;7.90;;;8.50;99.90;;;;;;10499273;28;20208;-84
2021/12/13 06:59:51;;;;;;;10.17;8.97;;;8.50;99.90;;;;;;10467206;28;20243;-84
2021/12/13 07:05:05;;;;;;;10.30;9.03;;;8.50;99.90;;;;;;10508125;28;20698;-84
2021/12/13 07:10:13;;;;;;;11.23;10.13;;;8.50;99.90;;;;;;10506451;28;20208;-84
2021/12/13 07:15:32;;;;;;;11.37;10.27;;;8.50;99.90;;;;;;10506853;28;20695;-84
2021/12/13 07:20:39;;;;;;;10.70;9.63;;;8.60;99.90;;;;;;10488711;28;20299;-83
2021/12/13 07:25:44;;;;;;;11.63;10.67;;;8.60;99.90;;;;;;10487600;28;20203;-85
2021/12/13 07:30:49;;;;;;;10.97;9.87;;;8.60;99.90;;;;;;10498688;28;20209;-83
2021/12/13 07:35:53;;;;;;;12.50;11.30;;;8.60;99.90;;;;;;10489481;28;20224;-84
2021/12/13 07:40:59;;;;;;;11.70;10.50;;;8.50;99.90;;;;;;10474981;28;20222;-85
2021/12/13 07:46:06;;;;;;;12.70;11.23;;;8.60;99.90;;;;;;10486754;28;20193;-84
2021/12/13 07:51:18;;;;;;;17.37;11.47;;;8.60;99.90;;;;;;10468006;28;20220;-84
2021/12/13 07:56:24;;;;;;;13.27;11.80;;;8.60;99.90;;;;;;10469584;28;20715;-86
2021/12/13 08:01:31;;;;;;;13.00;11.70;;;8.60;99.90;;;;;;10471851;28;20273;-84
2021/12/13 08:06:39;;;;;;;13.90;11.73;;;8.70;99.90;;;;;;10494167;28;20197;-84
2021/12/13 08:11:45;;;;;;;12.73;11.63;;;8.70;99.90;;;;;;10487035;28;20212;-85
2021/12/13 08:16:49;;;;;;;12.23;11.00;;;8.80;99.90;;;;;;10489304;28;20228;-84
2021/12/13 08:21:55;;;;;;;12.47;11.33;;;8.80;99.90;;;;;;10497052;28;20296;-85
2021/12/13 08:27:03;;;;;;;12.60;11.40;;;8.80;99.90;;;;;;10488717;28;20258;-84
2021/12/13 08:32:12;;;;;;;14.60;12.10;;;8.90;99.90;;;;;;10491666;28;20718;-83
2021/12/13 08:37:20;;;;;;;13.90;12.60;;;9.00;99.90;;;;;;10478777;28;20228;-84
2021/12/13 08:42:26;;;;;;;12.87;11.57;;;9.00;99.90;;;;;;10491813;28;20200;-84
2021/12/13 08:47:38;;;;;;;12.80;11.13;;;9.10;99.90;;;;;;10473179;28;20255;-84
2021/12/13 08:52:44;;;;;;;12.33;11.13;;;9.20;99.90;;;;;;10472581;28;20678;-84
2021/12/13 08:57:50;;;;;;;14.40;12.90;;;9.30;99.90;;;;;;10472633;28;20224;-83
2021/12/13 09:03:00;;;;;;;14.80;13.20;;;9.40;99.90;;;;;;10473344;28;20283;-83
2021/12/13 09:08:07;;;;;;;16.13;12.40;;;9.50;99.90;;;;;;10473743;28;20224;-84
2021/12/13 09:13:12;;;;;;;13.00;11.33;;;9.50;99.90;;;;;;10471466;28;20296;-85
2021/12/13 09:18:20;;;;;;;12.50;11.30;;;9.60;99.90;;;;;;10473382;28;20220;-84
2021/12/13 09:23:26;;;;;;;16.93;13.20;;;9.70;99.90;;;;;;10490341;28;20703;-84
2021/12/13 09:28:32;;;;;;;13.30;11.33;;;9.80;99.90;;;;;;10490588;28;20208;-84
2021/12/13 09:33:38;;;;;;;14.00;12.50;;;9.80;99.90;;;;;;10481981;28;20245;-84
2021/12/13 09:38:47;;;;;;;13.67;11.90;;;9.90;99.90;;;;;;10505466;28;20224;-84
2021/12/13 09:43:54;;;;;;;13.30;11.90;;;9.90;99.90;;;;;;10504075;28;20729;-85
2021/12/13 09:49:00;;;;;;;12.00;9.43;;;10.00;99.90;;;;;;10485975;28;20224;-85
2021/12/13 09:54:06;;;;;;;12.30;11.00;;;10.00;99.90;;;;;;10484499;28;20222;-85
2021/12/13 09:59:16;;;;;;;12.83;11.03;;;10.00;99.90;;;;;;10475288;28;20232;-85
2021/12/13 10:04:27;;;;;;;11.00;9.17;;;10.20;99.90;;;;;;10471314;28;20196;-84
2021/12/13 10:09:35;;;;;;;10.70;8.77;;;10.20;99.90;;;;;;10479845;28;20212;-84
2021/12/13 10:14:40;;;;;;;9.83;8.70;;;10.30;99.90;;;;;;10477188;28;20208;-85
2021/12/13 10:19:47;;;;;;;9.23;8.33;;;10.20;99.90;;;;;;10479543;28;20266;-84
2021/12/13 10:24:54;;;;;;;10.60;9.33;;;10.30;99.90;;;;;;10487333;28;20210;-84
2021/12/13 10:29:59;;;;;;;9.90;8.90;;;10.40;99.90;;;;;;10483412;28;20266;-84
2021/12/13 10:35:08;;;;;;;9.80;8.07;;;10.40;99.90;;;;;;10466263;28;20331;-84
2021/12/13 10:40:13;;;;;;;8.20;7.37;;;10.50;99.90;;;;;;10481939;28;20603;-84
2021/12/13 10:45:19;;;;;;;9.10;8.40;;;10.50;99.90;;;;;;10499458;28;20185;-85
2021/12/13 10:50:27;;;;;;;9.13;8.23;;;10.50;99.90;;;;;;10469042;28;20234;-85
2021/12/13 10:55:34;;;;;;;9.30;8.47;;;10.60;99.90;;;;;;10461709;28;20221;-84
2021/12/13 11:00:39;;;;;;;10.33;9.03;;;10.70;99.90;;;;;;10476918;28;20680;-84
2021/12/13 11:05:44;;;;;;;9.03;8.10;;;10.70;99.90;;;;;;10453655;28;20193;-83
2021/12/13 11:10:50;;;;;;;9.40;8.40;;;10.70;99.90;;;;;;10449517;28;20671;-84
2021/12/13 11:16:00;;;;;;;9.63;8.70;;;10.80;99.90;;;;;;10468353;28;20312;-82
2021/12/13 11:21:08;;;;;;;12.03;8.60;;;10.80;99.90;;;;;;10482343;28;20216;-82
2021/12/13 11:26:13;;;;;;;5.40;4.90;;;10.80;99.90;;;;;;10502744;28;20193;-82
2021/12/13 11:31:40;;;;;;;6.30;5.70;;;10.80;99.90;;;;;;10472318;28;20219;-82
2021/12/13 11:37:19;;;;;;;5.33;4.93;;;10.80;99.90;;;;;;10479196;28;20221;-83
2021/12/13 11:42:48;;;;;;;5.00;4.60;;;10.80;99.90;;;;;;10481903;28;20514;-82
2021/12/13 11:48:28;;;;;;;5.60;5.10;;;10.80;99.90;;;;;;10500485;22;20223;-82
2021/12/13 11:53:59;;;;;;;6.27;5.77;;;10.90;99.90;;;;;;10431680;28;20212;-83
2021/12/13 11:59:35;;;;;;;5.57;5.10;;;10.90;99.90;;;;;;10445948;28;20267;-83
2021/12/13 12:05:23;;;;;;;6.23;5.63;;;10.90;99.90;;;;;;10429924;28;20220;-83
2021/12/13 12:11:03;;;;;;;7.80;7.07;;;10.90;99.90;;;;;;10464284;28;20267;-83
2021/12/13 12:16:07;;;;;;;12.20;10.53;;;11.00;99.90;;;;;;10464210;28;20300;-83
2021/12/13 12:21:45;;;;;;;10.90;9.80;;;10.90;99.90;;;;;;10465300;28;20212;-82
2021/12/13 12:26:54;;;;;;;11.83;10.83;;;10.90;99.90;;;;;;10464401;28;20191;-83
2021/12/13 12:32:06;;;;;;;10.80;9.70;;;10.90;99.90;;;;;;10446305;28;20716;-83
2021/12/13 12:37:30;;;;;;;13.03;11.73;;;11.00;99.90;;;;;;10464137;28;20225;-83
2021/12/13 12:42:36;;;;;;;12.10;9.50;;;11.00;99.90;;;;;;10428042;28;20338;-83
2021/12/13 12:48:01;;;;;;;12.60;11.40;;;11.00;99.90;;;;;;10445146;28;20315;-83
2021/12/13 12:53:08;;;;;;;11.53;10.43;;;11.00;99.90;;;;;;10421240;28;20714;-83
2021/12/13 12:58:16;;;;;;;11.67;10.50;;;11.00;99.90;;;;;;10443321;28;20239;-83
2021/12/13 13:03:24;;;;;;;17.43;11.50;;;10.90;99.90;;;;;;10461899;28;20320;-83
2021/12/13 13:08:30;;;;;;;16.67;13.50;;;10.90;99.90;;;;;;10464711;28;20209;-82
2021/12/13 13:13:41;;;;;;;14.30;12.90;;;10.80;99.90;;;;;;10446764;28;20356;-83
2021/12/13 13:18:44;;;;;;;13.60;12.20;;;10.80;99.90;;;;;;10446093;28;20225;-83
2021/12/13 13:23:52;;;;;;;13.07;11.83;;;10.70;99.90;;;;;;10429536;28;20197;-84
2021/12/13 13:28:57;;;;;;;13.80;12.43;;;10.70;99.90;;;;;;10429174;28;20289;-83
2021/12/13 13:34:02;;;;;;;16.10;12.70;;;10.80;99.90;;;;;;10429615;28;20241;-83
2021/12/13 13:39:19;;;;;;;12.73;11.50;;;10.80;99.90;;;;;;10428538;28;20229;-83
2021/12/13 13:44:26;;;;;;;12.17;11.07;;;10.80;99.90;;;;;;10448200;28;20185;-83
2021/12/13 13:49:28;;;;;;;15.80;13.93;;;10.80;99.90;;;;;;10407684;28;1105897;-83
2021/12/13 13:54:31;;;;;;;14.07;12.67;;;10.80;99.90;;;;;;10429117;28;20377;-83
2021/12/13 13:59:40;;;;;;;16.00;14.23;;;10.70;99.90;;;;;;10440407;28;20245;-81
2021/12/13 14:04:47;;;;;;;13.40;12.10;;;10.70;99.90;;;;;;10442151;28;20228;-81
2021/12/13 14:09:52;;;;;;;13.37;11.80;;;10.70;99.90;;;;;;10459555;28;20244;-81
2021/12/13 14:15:00;;;;;;;13.03;11.40;;;10.70;99.90;;;;;;10421718;28;20205;-81
2021/12/13 14:20:18;;;;;;;12.87;11.67;;;10.70;99.90;;;;;;10440885;28;20301;-81
2021/12/13 14:25:33;;;;;;;17.17;15.67;;;10.70;99.90;;;;;;10442174;28;20197;-81
2021/12/13 14:30:40;;;;;;;18.87;15.00;;;10.70;99.90;;;;;;10442305;28;20209;-81
2021/12/13 14:35:43;;;;;;;14.07;12.53;;;10.70;99.90;;;;;;10439700;28;20216;-81
2021/12/13 14:40:50;;;;;;;12.93;11.70;;;10.70;99.90;;;;;;10425957;28;20209;-81
2021/12/13 14:45:56;;;;;;;14.53;12.00;;;10.60;99.90;;;;;;10444009;28;20193;-81
2021/12/13 14:51:03;;;;;;;12.40;11.10;;;10.60;99.90;;;;;;10445339;28;20304;-81
2021/12/13 14:56:10;;;;;;;11.80;10.70;;;10.60;99.90;;;;;;10443235;28;20303;-81
2021/12/13 15:01:17;;;;;;;11.63;9.60;;;10.60;99.90;;;;;;10445348;28;20343;-81
2021/12/13 15:06:25;;;;;;;8.50;7.70;;;10.60;99.90;;;;;;10461511;28;20201;-81
2021/12/13 15:11:30;;;;;;;8.50;7.60;;;10.60;99.90;;;;;;10464785;28;20243;-81
2021/12/13 15:16:37;;;;;;;6.93;6.40;;;10.60;99.90;;;;;;10437849;28;20213;-81
2021/12/13 15:21:42;;;;;;;8.27;7.63;;;10.50;99.90;;;;;;10460930;28;20209;-81
2021/12/13 15:26:49;;;;;;;5.70;5.20;;;10.50;99.90;;;;;;10445178;28;20260;-81
2021/12/13 15:31:57;;;;;;;5.47;5.03;;;10.50;99.90;;;;;;10429799;28;20224;-81
2021/12/13 15:37:01;;;;;;;4.07;3.77;;;10.50;99.90;;;;;;10448812;28;20734;-81
2021/12/13 15:42:03;;;;;;;4.43;4.03;;;10.40;99.90;;;;;;10464037;28;20217;-81
2021/12/13 15:47:07;;;;;;;3.60;3.40;;;10.40;99.90;;;;;;10429915;28;20221;-81
2021/12/13 15:52:12;;;;;;;4.67;4.37;;;10.30;99.90;;;;;;10429407;28;20201;-81
2021/12/13 15:57:17;;;;;;;5.10;4.80;;;10.30;99.90;;;;;;10428179;28;20267;-81
2021/12/13 16:02:23;;;;;;;5.50;5.10;;;10.20;99.90;;;;;;10447059;28;20284;-81
2021/12/13 16:07:26;;;;;;;4.83;4.53;;;10.20;99.90;;;;;;10468549;28;20567;-81
2021/12/13 16:12:31;;;;;;;5.70;5.30;;;10.30;99.90;;;;;;10450751;28;20654;-81
2021/12/13 16:17:37;;;;;;;6.03;5.53;;;10.30;99.90;;;;;;10467779;28;20228;-81
2021/12/13 16:22:47;;;;;;;6.57;6.07;;;10.30;99.90;;;;;;10468351;28;20676;-81
2021/12/13 16:27:53;;;;;;;7.17;6.60;;;10.30;99.90;;;;;;10448020;28;20220;-81
2021/12/13 16:32:57;;;;;;;8.50;7.80;;;10.30;99.90;;;;;;10434932;28;20223;-81
2021/12/13 16:38:02;;;;;;;6.70;6.20;;;10.30;99.90;;;;;;10450704;28;20576;-82
2021/12/13 16:43:07;;;;;;;7.13;6.63;;;10.20;99.90;;;;;;10433737;28;20197;-81
2021/12/13 16:48:11;;;;;;;5.30;4.80;;;10.20;99.90;;;;;;10430876;28;20259;-81
2021/12/13 16:53:13;;;;;;;5.97;5.47;;;10.30;99.90;;;;;;10433695;28;20204;-81
2021/12/13 16:58:17;;;;;;;6.03;5.53;;;10.20;99.90;;;;;;10448436;28;20228;-82
2021/12/13 17:03:27;;;;;;;5.87;5.47;;;10.30;99.90;;;;;;10435394;28;20573;-82
2021/12/13 17:08:32;;;;;;;5.77;5.37;;;10.30;99.90;;;;;;10465843;28;20685;-81
2021/12/13 17:13:41;;;;;;;7.10;6.60;;;10.30;99.90;;;;;;10466538;28;20193;-81
2021/12/13 17:18:47;;;;;;;7.77;7.17;;;10.30;99.90;;;;;;10432787;28;20229;-81
2021/12/13 17:23:51;;;;;;;7.00;6.50;;;10.30;99.90;;;;;;10432110;28;20580;-81
2021/12/13 17:29:15;;;;;;;7.70;7.10;;;10.30;99.90;;;;;;10432334;28;20391;-82
2021/12/13 17:34:37;;;;;;;7.67;7.03;;;10.30;99.90;;;;;;10467618;28;20198;-82
2021/12/13 17:39:42;;;;;;;9.70;8.90;;;10.30;99.90;;;;;;10466398;28;20221;-81
2021/12/13 17:44:45;;;;;;;10.47;9.67;;;10.30;99.90;;;;;;10449394;28;20269;-82
2021/12/13 17:49:53;;;;;;;10.87;9.87;;;10.30;99.90;;;;;;10467981;28;20237;-82
2021/12/13 17:54:59;;;;;;;14.40;13.20;;;10.30;99.90;;;;;;10456996;28;20197;-81
2021/12/13 18:00:06;;;;;;;16.30;14.90;;;10.40;99.90;;;;;;10452935;28;20281;-83
2021/12/13 18:05:28;;;;;;;14.70;13.50;;;10.30;99.90;;;;;;10465216;28;20197;-82
2021/12/13 18:10:31;;;;;;;14.90;13.60;;;10.30;99.90;;;;;;10430543;28;20212;-82
2021/12/13 18:15:35;;;;;;;15.27;13.97;;;10.30;99.90;;;;;;10447187;28;20220;-82
2021/12/13 18:20:43;;;;;;;16.70;15.20;;;10.30;99.90;;;;;;10430427;28;20229;-82
2021/12/13 18:25:56;;;;;;;14.37;13.17;;;10.30;99.90;;;;;;10465840;28;20189;-82
2021/12/13 18:31:01;;;;;;;17.00;15.50;;;10.30;99.90;;;;;;10433486;28;20217;-82
2021/12/13 18:36:07;;;;;;;17.40;15.87;;;10.30;99.90;;;;;;10468752;28;20205;-83
2021/12/13 18:41:15;;;;;;;17.83;16.23;;;10.30;99.90;;;;;;10442220;28;20292;-81
2021/12/13 18:46:29;;;;;;;17.43;15.83;;;10.30;99.90;;;;;;10440162;28;20189;-82
2021/12/13 18:51:42;;;;;;;20.70;17.03;;;10.20;99.90;;;;;;10442296;28;20248;-81
2021/12/13 18:56:45;;;;;;;13.33;12.13;;;10.20;99.90;;;;;;10436989;28;20239;-81
2021/12/13 19:01:56;;;;;;;12.53;11.43;;;10.30;99.90;;;;;;10438036;28;20219;-82
2021/12/13 19:07:12;;;;;;;12.93;11.60;;;10.20;99.90;;;;;;10431322;28;20665;-82
2021/12/13 19:12:17;;;;;;;11.37;10.40;;;10.20;99.90;;;;;;10453782;28;20192;-80
2021/12/13 19:17:23;;;;;;;10.40;9.50;;;10.10;99.90;;;;;;10456559;28;20205;-82
2021/12/13 19:22:29;;;;;;;10.00;9.20;;;10.10;99.90;;;;;;10453554;28;20190;-82
2021/12/13 19:27:39;;;;;;;12.03;10.93;;;10.10;99.90;;;;;;10440142;28;20296;-82
2021/12/13 19:32:49;;;;;;;9.77;8.97;;;10.00;99.90;;;;;;10455489;28;20732;-81
2021/12/13 19:37:56;;;;;;;10.30;9.40;;;10.00;99.90;;;;;;10396183;28;20959;-82
2021/12/13 19:48:59;;;;;;;10.00;9.10;;;9.90;99.90;;;;;;10380504;28;20579;-82
2021/12/13 19:54:09;;;;;;;9.87;8.97;;;9.80;99.90;;;;;;10393067;28;20201;-82
2021/12/13 19:59:16;;;;;;;12.63;11.50;;;9.70;99.90;;;;;;10405898;23;20234;-81
2021/12/13 20:04:27;;;;;;;10.63;9.63;;;9.60;99.90;;;;;;10381035;28;20213;-82
2021/12/13 20:09:36;;;;;;;10.30;9.40;;;9.50;99.90;;;;;;10402146;28;20214;-83
2021/12/13 20:14:40;;;;;;;12.13;10.93;;;9.40;99.90;;;;;;10391731;28;20654;-84
2021/12/13 20:19:46;;;;;;;11.97;10.80;;;9.30;99.90;;;;;;10388169;28;20701;-84
2021/12/13 20:24:55;;;;;;;11.40;10.30;;;9.20;99.90;;;;;;10403275;28;20206;-83
2021/12/13 20:30:07;;;;;;;12.40;11.23;;;9.20;99.90;;;;;;10405304;28;20245;-84
2021/12/13 20:35:15;;;;;;;11.77;10.60;;;9.20;99.90;;;;;;10389480;28;20205;-84
2021/12/13 20:40:29;;;;;;;12.37;11.27;;;9.40;99.90;;;;;;10389676;28;20218;-84
2021/12/13 20:45:38;;;;;;;14.50;13.03;;;9.40;99.90;;;;;;10424126;28;20190;-84
2021/12/13 20:50:53;;;;;;;13.53;12.00;;;9.30;99.90;;;;;;10371031;28;20215;-82
2021/12/13 20:56:00;;;;;;;14.27;12.87;;;9.30;99.90;;;;;;10375022;28;20190;-82
2021/12/13 21:01:11;;;;;;;13.63;12.33;;;9.40;99.90;;;;;;10360496;28;20257;-84
2021/12/13 21:06:17;;;;;;;14.97;13.30;;;9.40;99.90;;;;;;10394532;28;20213;-84
2021/12/13 21:11:25;;;;;;;15.87;14.17;;;9.40;99.90;;;;;;10410761;28;20214;-82
2021/12/13 21:16:32;;;;;;;16.43;14.53;;;9.40;99.90;;;;;;10397907;28;20222;-83
2021/12/13 21:21:38;;;;;;;16.43;14.83;;;9.40;99.90;;;;;;10431986;28;20209;-84
2021/12/13 21:26:44;;;;;;;15.90;14.30;;;9.30;99.90;;;;;;10390977;28;20201;-84
2021/12/13 21:31:51;;;;;;;16.93;15.33;;;9.30;99.90;;;;;;10390390;28;20218;-84
2021/12/13 21:42:17;;;;;;;18.00;16.20;;;9.20;99.90;;;;;;10377935;28;20715;-82
2021/12/13 21:47:22;;;;;;;18.43;16.60;;;9.20;99.90;;;;;;10389154;28;20186;-82
2021/12/13 21:52:29;;;;;;;18.67;16.80;;;9.20;99.90;;;;;;10402689;28;20198;-82
2021/12/13 21:57:37;;;;;;;19.97;17.87;;;9.30;99.90;;;;;;10384433;28;20257;-82
2021/12/13 22:02:39;;;;;;;18.30;16.40;;;9.30;99.90;;;;;;10420701;28;20194;-83
2021/12/13 22:07:46;;;;;;;21.60;17.23;;;9.30;99.90;;;;;;10404737;28;20649;-84
2021/12/13 22:12:57;;;;;;;20.17;16.37;;;9.30;99.90;;;;;;10418210;28;20717;-83
2021/12/13 22:18:04;;;;;;;18.10;16.20;;;9.20;99.90;;;;;;10380624;28;20226;-84
2021/12/13 22:23:10;;;;;;;18.57;15.63;;;9.20;99.90;;;;;;10387958;28;20217;-83
2021/12/13 22:28:16;;;;;;;17.43;15.70;;;9.20;99.90;;;;;;10385787;28;20241;-83
2021/12/13 22:33:20;;;;;;;18.60;16.50;;;9.20;99.90;;;;;;10410724;28;20244;-84
2021/12/13 22:38:27;;;;;;;17.90;16.07;;;9.20;99.90;;;;;;10382248;28;20718;-82
2021/12/13 22:43:35;;;;;;;19.30;17.30;;;9.20;99.90;;;;;;10398675;28;20198;-82
2021/12/13 22:48:39;;;;;;;19.07;16.97;;;9.20;99.90;;;;;;10398428;28;20309;-83
2021/12/13 22:53:44;;;;;;;18.70;16.80;;;9.20;99.90;;;;;;10398831;28;20198;-83
2021/12/13 22:58:54;;;;;;;20.03;16.20;;;9.10;99.90;;;;;;10381829;28;20224;-83
2021/12/13 23:04:03;;;;;;;19.40;17.37;;;9.10;99.90;;;;;;10399176;28;20563;-83
2021/12/13 23:09:22;;;;;;;19.97;16.10;;;9.10;99.90;;;;;;10399878;28;20222;-83
2021/12/13 23:14:28;;;;;;;20.67;17.10;;;9.10;99.90;;;;;;10399894;28;20193;-82
2021/12/13 23:19:32;;;;;;;17.47;15.67;;;9.10;99.90;;;;;;10383516;28;20226;-83
2021/12/13 23:24:36;;;;;;;14.33;11.90;;;9.10;99.90;;;;;;10401182;28;20201;-84
2021/12/13 23:29:46;;;;;;;13.87;12.20;;;9.10;99.90;;;;;;10401024;28;20221;-83
2021/12/13 23:34:48;;;;;;;12.03;10.83;;;9.10;99.90;;;;;;10383131;28;20240;-83
2021/12/13 23:45:40;;;;;;;11.60;10.50;;;9.10;99.90;;;;;;10391130;28;20244;-83
2021/12/13 23:50:45;;;;;;;12.73;11.43;;;9.10;99.90;;;;;;10412079;28;20273;-84
2021/12/13 23:55:50;;;;;;;14.20;12.37;;;9.00;99.90;;;;;;10429928;28;20200;-84
